AirNav   Everest Fuels
 
 661 users online  

KTTF Custer Airport
Monroe, Michigan, USA

GOING TO MONROE?


FAA INFORMATION EFFECTIVE 18 JUNE 2020

Location

FAA Identifier: TTF
Lat/Long: 41-56-23.6000N 083-26-04.8000W
41-56.393333N 083-26.080000W
41.9398889,-83.4346667
(estimated)
Elevation: 615.6 ft. / 187.6 m (surveyed)
Variation: 05W (1980)
From city: 2 miles NW of MONROE, MI
Time zone: UTC -4 (UTC -5 during Standard Time)
Zip code: 48162

Airport Operations

Airport use: Open to the public
Activation date: 11/1946
Control tower: no
ARTCC: CLEVELAND CENTER
FSS: LANSING FLIGHT SERVICE STATION
NOTAMs facility: TTF (NOTAM-D service available)
Attendance: 0800-1700
Wind indicator: lighted
Segmented circle: yes
Lights: ACTVT MIRL RY 03/21, REIL RY 21, VASI RY 03 & PAPI RY 21 - CTAF.
Beacon: white-green (lighted land airport)
Operates sunset to sunrise.

Airport Communications

CTAF/UNICOM: 122.7
WX AWOS-3: 119.075 (734-384-0259)
DETROIT APPROACH: 134.3
DETROIT DEPARTURE: 134.3
WX AWOS-3 at ONZ (15 nm NE): 119.675 (734-692-9686)
WX AWOS-3 at DUH (16 nm SW): 119.175 (734-856-1563)
WX ASOS at DTW (17 nm N): 133.675 (734-955-5015)
WX ASOS at YIP (19 nm N): PHONE 734-961-6843

Nearby radio navigation aids

VOR radial/distance  VOR name  Freq  Var
CRLr174/6.6CARLETON VOR/DME115.7003W
DXOr196/16.7DETROIT VOR/DME113.4006W
SVMr169/29.0SALEM VORTAC114.3003W

 
NDB name  Hdg/Dist  Freq  Var  ID
GROSSE ILE239/15.941907WRYS .-. -.-- ...
TECUMSEH112/20.923906WTCU - -.-. ..-
ADRIAN088/29.027806WADG .- -.. --.
PORT CLINTON322/35.842307WPCW .--. -.-. .--

Airport Services

Fuel available: 100LL JET-A
Parking: hangars and tiedowns
Airframe service: MAJOR
Powerplant service: MAJOR
Bottled oxygen: NONE
Bulk oxygen: NONE

Runway Information

Runway 3/21

Dimensions: 4997 x 100 ft. / 1523 x 30 m
Surface: asphalt/grooved, in good condition
Weight bearing capacity: 
Single wheel: 60.0
Double wheel: 80.0
Runway edge lights: medium intensity
RUNWAY 3  RUNWAY 21
Latitude: 41-56.013992N41-56.774095N
Longitude: 083-26.290813W083-25.869247W
Elevation: 611.1 ft.615.4 ft.
Traffic pattern: leftleft
Runway heading: 027 magnetic, 022 true207 magnetic, 202 true
Markings: nonprecision, in fair conditionnonprecision, in fair condition
Visual slope indicator: 2-box VASI on left (4.00 degrees glide path)2-light PAPI on left (3.50 degrees glide path)
Runway end identifier lights: noyes
Touchdown point: yes, no lightsyes, no lights
Obstructions: 64 ft. trees, 1800 ft. from runway, 25:1 slope to clearnone

Airport Ownership and Management from official FAA records

Ownership: Publicly-owned
Owner: CITY OF MONROE
222 JONES AVE
MONROE, MI 48161
Phone (734) 384-9616
Manager: JERARD E. DELANEY II.
2800 N CUSTER RD
MONROE, MI 48161
Phone (734) 384-9616

Airport Operational Statistics

Aircraft based on the field: 34
Single engine airplanes: 30
Multi engine airplanes: 4
    
Aircraft operations: avg 33/day *
50% transient general aviation
50% local general aviation
* for 12-month period ending 31 December 2017

Additional Remarks

BIRDS & DEER INVOF RWY.
NOISE SENSITIVE AREAS. DEP ACFT MAX RATE OF CLIMB TO TPA.
FOR CD CTC DETROIT APCH AT 800-499-8181.

Instrument Procedures

NOTE: All procedures below are presented as PDF files. If you need a reader for these files, you should download the free Adobe Reader.

NOT FOR NAVIGATION. Please procure official charts for flight.
FAA instrument procedures published for use from 18 June 2020 at 0901Z to 16 July 2020 at 0900Z.

 
STARs - Standard Terminal Arrivals
FOREY TWO (RNAV)   download (179KB)
GIGGY TWO (RNAV)   download (149KB)
PETTE TWO (RNAV)   download (220KB)
RRALF THREE (RNAV) **NEW**   download (178KB)
 
IAPs - Instrument Approach Procedures
RNAV (GPS) RWY 03   download (205KB)
RNAV (GPS) RWY 21   download (244KB)
NOTE: Special Alternate Minimums apply   download (53KB)
 
Departure Procedures
BARII TWO (RNAV)   download (153KB)
CCOBB TWO (RNAV) **CHANGED**   download (198KB)
CLVIN TWO (RNAV)   download (168KB)
HHOWE THREE (RNAV)   download (183KB)
KAYLN TWO (RNAV)   download (161KB)
LIDDS TWO (RNAV)   download (174KB)
MIGGY TWO (RNAV)   download (194KB)
PAVYL TWO (RNAV)   download (171KB)
SNDRS TWO (RNAV)   download (209KB)
TRMML THREE (RNAV)   download (157KB)
ZETTR THREE (RNAV)   download (199KB)
NOTE: Special Take-Off Minimums/Departure Procedures apply   download (208KB)

Other nearby airports with instrument procedures:

KONZ - Grosse Ile Municipal Airport (15 nm NE)
KDUH - Toledo Suburban Airport (16 nm SW)
KDTW - Detroit Metropolitan Wayne County Airport (17 nm N)
KYIP - Willow Run Airport (19 nm N)
KARB - Ann Arbor Municipal Airport (22 nm NW)
 
Loc | Ops | Rwys | IFR | FBO | Links
Com | Nav | Svcs | Stats | Notes
Area around KTTF (Custer Airport)
 
Road maps at: MapQuest Bing Google
 
Aerial photo
WARNING: Photo may not be current or correct
Aerial photo of KTTF (Custer Airport)
Photo by Robin Sprys
Photo taken 22-Jun-2010

Do you have a better or more recent aerial photo of Custer Airport that you would like to share? If so, please send us your photo.

 
Sectional chart

 
Airport distance calculator
Flying to Custer Airport? Find the distance to fly.

From to KTTF

Sunrise and sunset
Times for 06-Jul-2020
 Local
(UTC-4)
 Zulu
(UTC)
Morning civil twilight05:3309:33
Sunrise06:0710:07
Sunset21:1101:11
Evening civil twilight21:4401:44

Current date and time
Zulu (UTC)  06-Jul-2020 12:00:16
Local (UTC-4)  06-Jul-2020 08:00:16
 
METAR
KTTF 061155Z AUTO 00000KT 10SM CLR 23/22 A3001 RMK AO2 T02310215 10231 20190
KDUH 
16nm SW 
061155Z AUTO 00000KT 10SM CLR 23/18 A3001 RMK AO2 T02300175 10230 20188
KONZ 
16nm NE 
061155Z AUTO 00000KT 10SM BKN090 25/23 A3001 RMK AO2 T02450225 10245 20204
KYIP 
18nm N 
061153Z 00000KT 10SM FEW060 26/20 A3002 RMK AO2 SLP158 T02560200 10256 20211 51011
KDTW 
18nm N 
061153Z 17004KT 5SM HZ SCT075 BKN220 24/19 A3002 RMK AO2 SLP161 T02390189 10244 20222 51013
TAF
KYIP 
18nm N 
061137Z 0612/0712 21003KT P6SM SCT070 BKN120 OVC200 FM061600 19006KT P6SM FEW070 FM062000 16006KT P6SM SCT070 FM070200 14003KT P6SM FEW070
KDTW 
18nm N 
061137Z 0612/0718 21003KT P6SM SCT070 BKN120 OVC200 FM061600 19006KT P6SM FEW070 FM062000 16006KT P6SM SCT070 FM070200 14003KT P6SM FEW070
NOTAMs
Click for the latest NOTAMs
NOTAMs are issued by the DoD/FAA and will open in a separate window not controlled by AirNav.

 

 
 

FBO, Fuel Providers, and Aircraft Ground Support

  
 Business Name 
 
 Contact 
 
 Services / Description 
 
Fuel Prices
 
Comments
  
Monroe Aviation School of Flight 734-384-9616
no information available

If you are affiliated with Monroe Aviation School of Flight and would like to show here your services, contact info, web link, logo, and more, click here
100LL Jet A
FS $4.90 $3.50 
 Updated 01-Jul-2020
 
   1 read write
FS=Full service
Update Fuel Prices
 

Would you like to see your business listed on this page?

 If your business provides an interesting product or service to pilots, flight crews, aircraft, or users of the Custer Airport, you should consider listing it here.  To start the listing process, click on the button below
 
Add a business
 

Other Pages about Custer Airport

www.monroemi.gov/...
Page from the Michigan Airport Directory (PDF)
 
Update a link
 
Copyright © AirNav, LLC. All rights reserved. Privacy Policy  Contact